sensor_id;sensor_type;location;lat;lon;timestamp;pressure;altitude;pressure_sealevel;temperature;humidity
31911;BME280;18457;52.432;16.914;2023-01-15T00:02:10;99165.56;;;8.41;72.62
31911;BME280;18457;52.432;16.914;2023-01-15T00:04:39;99168.30;;;8.45;72.40
31911;BME280;18457;52.432;16.914;2023-01-15T00:07:08;99166.98;;;8.47;72.27
31911;BME280;18457;52.432;16.914;2023-01-15T00:09:36;99166.04;;;8.48;72.06
31911;BME280;18457;52.432;16.914;2023-01-15T00:12:05;99160.77;;;8.50;72.14
31911;BME280;18457;52.432;16.914;2023-01-15T00:14:33;99152.23;;;8.51;72.10
31911;BME280;18457;52.432;16.914;2023-01-15T00:17:02;99151.25;;;8.53;72.01
31911;BME280;18457;52.432;16.914;2023-01-15T00:19:30;99146.17;;;8.55;71.94
31911;BME280;18457;52.432;16.914;2023-01-15T00:21:58;99141.96;;;8.57;71.90
31911;BME280;18457;52.432;16.914;2023-01-15T00:24:27;99140.75;;;8.60;71.97
31911;BME280;18457;52.432;16.914;2023-01-15T00:27:14;99134.61;;;8.61;71.96
31911;BME280;18457;52.432;16.914;2023-01-15T00:30:01;99142.66;;;8.62;72.00
31911;BME280;18457;52.432;16.914;2023-01-15T00:32:30;99135.30;;;8.66;71.88
31911;BME280;18457;52.432;16.914;2023-01-15T00:34:59;99133.65;;;8.67;71.88
31911;BME280;18457;52.432;16.914;2023-01-15T00:37:28;99113.27;;;8.69;71.93
31911;BME280;18457;52.432;16.914;2023-01-15T00:39:56;99100.73;;;8.72;71.92
31911;BME280;18457;52.432;16.914;2023-01-15T00:42:25;99097.21;;;8.74;71.91
31911;BME280;18457;52.432;16.914;2023-01-15T00:44:53;99097.49;;;8.76;71.88
31911;BME280;18457;52.432;16.914;2023-01-15T00:47:22;99086.69;;;8.76;71.86
31911;BME280;18457;52.432;16.914;2023-01-15T00:49:50;99083.69;;;8.79;71.64
31911;BME280;18457;52.432;16.914;2023-01-15T00:52:21;99077.84;;;8.82;71.72
31911;BME280;18457;52.432;16.914;2023-01-15T00:54:49;99070.08;;;8.82;71.52
31911;BME280;18457;52.432;16.914;2023-01-15T00:57:18;99073.70;;;8.86;71.48
31911;BME280;18457;52.432;16.914;2023-01-15T00:59:47;99079.60;;;8.88;71.51
31911;BME280;18457;52.432;16.914;2023-01-15T01:02:15;99077.19;;;8.89;71.56
31911;BME280;18457;52.432;16.914;2023-01-15T01:04:44;99075.20;;;8.89;71.73
31911;BME280;18457;52.432;16.914;2023-01-15T01:07:13;99084.51;;;8.91;71.67
31911;BME280;18457;52.432;16.914;2023-01-15T01:09:42;99085.66;;;8.93;71.74
31911;BME280;18457;52.432;16.914;2023-01-15T01:12:11;99073.83;;;8.97;71.65
31911;BME280;18457;52.432;16.914;2023-01-15T01:14:39;99064.73;;;8.99;71.68
31911;BME280;18457;52.432;16.914;2023-01-15T01:17:07;99063.19;;;9.02;71.47
31911;BME280;18457;52.432;16.914;2023-01-15T01:19:36;99056.27;;;9.04;71.44
31911;BME280;18457;52.432;16.914;2023-01-15T01:22:05;99041.85;;;9.04;71.26
31911;BME280;18457;52.432;16.914;2023-01-15T01:24:34;99043.77;;;9.05;71.32
31911;BME280;18457;52.432;16.914;2023-01-15T01:27:03;99042.10;;;9.06;71.38
31911;BME280;18457;52.432;16.914;2023-01-15T01:29:32;99043.67;;;9.08;71.38
31911;BME280;18457;52.432;16.914;2023-01-15T01:32:01;99031.59;;;9.08;71.31
31911;BME280;18457;52.432;16.914;2023-01-15T01:34:30;99029.71;;;9.10;71.21
31911;BME280;18457;52.432;16.914;2023-01-15T01:36:58;99032.02;;;9.11;71.36
31911;BME280;18457;52.432;16.914;2023-01-15T01:39:26;99026.00;;;9.13;71.35
31911;BME280;18457;52.432;16.914;2023-01-15T01:41:55;99019.66;;;9.14;71.25
31911;BME280;18457;52.432;16.914;2023-01-15T01:44:57;99018.98;;;9.17;71.16
31911;BME280;18457;52.432;16.914;2023-01-15T01:47:28;99012.69;;;9.16;71.32
31911;BME280;18457;52.432;16.914;2023-01-15T01:50:00;99005.04;;;9.18;71.28
31911;BME280;18457;52.432;16.914;2023-01-15T01:52:29;99007.33;;;9.20;71.17
31911;BME280;18457;52.432;16.914;2023-01-15T01:55:01;99004.42;;;9.20;71.10
31911;BME280;18457;52.432;16.914;2023-01-15T01:57:30;99001.85;;;9.22;71.03
31911;BME280;18457;52.432;16.914;2023-01-15T02:00:00;98999.05;;;9.24;70.92
31911;BME280;18457;52.432;16.914;2023-01-15T02:02:43;99000.09;;;9.25;70.94
31911;BME280;18457;52.432;16.914;2023-01-15T02:05:17;98995.50;;;9.27;70.80
31911;BME280;18457;52.432;16.914;2023-01-15T02:07:48;98986.63;;;9.28;70.89
31911;BME280;18457;52.432;16.914;2023-01-15T02:10:17;98979.61;;;9.28;70.60
31911;BME280;18457;52.432;16.914;2023-01-15T02:12:50;98965.44;;;9.30;70.59
31911;BME280;18457;52.432;16.914;2023-01-15T02:15:27;98954.02;;;9.32;70.71
31911;BME280;18457;52.432;16.914;2023-01-15T02:18:04;98954.98;;;9.31;70.59
31911;BME280;18457;52.432;16.914;2023-01-15T02:20:37;98943.41;;;9.31;70.56
31911;BME280;18457;52.432;16.914;2023-01-15T02:23:30;98950.04;;;9.32;70.68
31911;BME280;18457;52.432;16.914;2023-01-15T02:26:23;98953.95;;;9.34;70.98
31911;BME280;18457;52.432;16.914;2023-01-15T02:28:55;98952.92;;;9.32;71.11
31911;BME280;18457;52.432;16.914;2023-01-15T02:31:27;98957.45;;;9.36;71.18
31911;BME280;18457;52.432;16.914;2023-01-15T02:34:01;98956.84;;;9.38;71.53
31911;BME280;18457;52.432;16.914;2023-01-15T02:36:36;98945.06;;;9.39;71.96
31911;BME280;18457;52.432;16.914;2023-01-15T02:39:10;98929.84;;;9.41;72.19
31911;BME280;18457;52.432;16.914;2023-01-15T02:41:43;98925.11;;;9.42;72.24
31911;BME280;18457;52.432;16.914;2023-01-15T02:44:13;98928.89;;;9.42;72.21
31911;BME280;18457;52.432;16.914;2023-01-15T02:46:45;98924.34;;;9.43;72.10
31911;BME280;18457;52.432;16.914;2023-01-15T02:49:18;98922.89;;;9.43;72.12
31911;BME280;18457;52.432;16.914;2023-01-15T02:51:52;98922.55;;;9.43;72.06
31911;BME280;18457;52.432;16.914;2023-01-15T02:54:26;98927.57;;;9.43;71.70
31911;BME280;18457;52.432;16.914;2023-01-15T02:56:59;98927.67;;;9.45;71.78
31911;BME280;18457;52.432;16.914;2023-01-15T02:59:34;98930.01;;;9.45;71.63
31911;BME280;18457;52.432;16.914;2023-01-15T03:02:08;98925.18;;;9.45;71.35
31911;BME280;18457;52.432;16.914;2023-01-15T03:04:42;98921.96;;;9.44;71.20
31911;BME280;18457;52.432;16.914;2023-01-15T03:07:19;98923.73;;;9.45;71.11
31911;BME280;18457;52.432;16.914;2023-01-15T03:09:49;98922.92;;;9.46;71.01
31911;BME280;18457;52.432;16.914;2023-01-15T03:12:24;98923.25;;;9.47;71.04
31911;BME280;18457;52.432;16.914;2023-01-15T03:15:01;98929.02;;;9.47;71.28
31911;BME280;18457;52.432;16.914;2023-01-15T03:17:36;98922.66;;;9.49;71.39
31911;BME280;18457;52.432;16.914;2023-01-15T03:20:10;98917.73;;;9.50;71.37
31911;BME280;18457;52.432;16.914;2023-01-15T03:22:42;98908.02;;;9.49;71.43
31911;BME280;18457;52.432;16.914;2023-01-15T03:25:12;98902.84;;;9.48;71.62
31911;BME280;18457;52.432;16.914;2023-01-15T03:27:45;98903.75;;;9.48;71.75
31911;BME280;18457;52.432;16.914;2023-01-15T03:30:16;98893.49;;;9.48;71.71
31911;BME280;18457;52.432;16.914;2023-01-15T03:32:45;98891.76;;;9.47;71.84
31911;BME280;18457;52.432;16.914;2023-01-15T03:35:44;98892.07;;;9.47;71.71
31911;BME280;18457;52.432;16.914;2023-01-15T03:38:17;98883.89;;;9.49;71.66
31911;BME280;18457;52.432;16.914;2023-01-15T03:40:52;98884.19;;;9.46;71.62
31911;BME280;18457;52.432;16.914;2023-01-15T03:43:31;98888.70;;;9.46;71.69
31911;BME280;18457;52.432;16.914;2023-01-15T03:46:16;98887.86;;;9.48;71.69
31911;BME280;18457;52.432;16.914;2023-01-15T03:48:54;98883.73;;;9.49;71.63
31911;BME280;18457;52.432;16.914;2023-01-15T03:51:30;98879.82;;;9.47;71.52
31911;BME280;18457;52.432;16.914;2023-01-15T03:54:08;98883.91;;;9.49;71.62
31911;BME280;18457;52.432;16.914;2023-01-15T03:56:45;98866.63;;;9.48;71.72
31911;BME280;18457;52.432;16.914;2023-01-15T03:59:27;98864.65;;;9.48;71.76
31911;BME280;18457;52.432;16.914;2023-01-15T04:02:02;98852.41;;;9.47;71.89
31911;BME280;18457;52.432;16.914;2023-01-15T04:04:32;98848.27;;;9.47;71.97
31911;BME280;18457;52.432;16.914;2023-01-15T04:07:03;98845.98;;;9.47;72.13
31911;BME280;18457;52.432;16.914;2023-01-15T04:09:37;98849.59;;;9.46;72.09
31911;BME280;18457;52.432;16.914;2023-01-15T04:12:08;98848.70;;;9.46;72.19
31911;BME280;18457;52.432;16.914;2023-01-15T04:14:40;98844.68;;;9.47;72.24
31911;BME280;18457;52.432;16.914;2023-01-15T04:17:15;98832.05;;;9.47;72.36
31911;BME280;18457;52.432;16.914;2023-01-15T04:19:44;98829.91;;;9.47;72.54
31911;BME280;18457;52.432;16.914;2023-01-15T04:22:13;98828.95;;;9.48;72.52
31911;BME280;18457;52.432;16.914;2023-01-15T04:24:42;98834.98;;;9.50;72.54
31911;BME280;18457;52.432;16.914;2023-01-15T04:27:12;98837.55;;;9.49;72.77
31911;BME280;18457;52.432;16.914;2023-01-15T04:29:41;98844.61;;;9.49;73.19
31911;BME280;18457;52.432;16.914;2023-01-15T04:32:09;98836.09;;;9.50;73.36
31911;BME280;18457;52.432;16.914;2023-01-15T04:34:38;98827.05;;;9.46;74.07
31911;BME280;18457;52.432;16.914;2023-01-15T04:37:06;98821.55;;;9.48;74.46
31911;BME280;18457;52.432;16.914;2023-01-15T04:39:34;98817.14;;;9.46;75.47
31911;BME280;18457;52.432;16.914;2023-01-15T04:42:03;98805.75;;;9.43;76.89
31911;BME280;18457;52.432;16.914;2023-01-15T04:44:50;98811.48;;;9.40;78.12
31911;BME280;18457;52.432;16.914;2023-01-15T04:47:18;98809.52;;;9.35;79.36
31911;BME280;18457;52.432;16.914;2023-01-15T04:49:46;98802.77;;;9.33;80.21
31911;BME280;18457;52.432;16.914;2023-01-15T04:52:15;98802.95;;;9.29;81.16
31911;BME280;18457;52.432;16.914;2023-01-15T04:54:44;98800.74;;;9.26;82.04
31911;BME280;18457;52.432;16.914;2023-01-15T04:57:13;98794.84;;;9.22;82.80
31911;BME280;18457;52.432;16.914;2023-01-15T04:59:42;98790.10;;;9.19;83.44
31911;BME280;18457;52.432;16.914;2023-01-15T05:02:10;98789.17;;;9.19;83.98
31911;BME280;18457;52.432;16.914;2023-01-15T05:04:39;98787.48;;;9.17;84.75
31911;BME280;18457;52.432;16.914;2023-01-15T05:07:08;98790.73;;;9.17;85.10
31911;BME280;18457;52.432;16.914;2023-01-15T05:09:36;98789.34;;;9.16;85.38
31911;BME280;18457;52.432;16.914;2023-01-15T05:12:05;98786.19;;;9.14;85.98
31911;BME280;18457;52.432;16.914;2023-01-15T05:14:34;98782.04;;;9.14;86.42
31911;BME280;18457;52.432;16.914;2023-01-15T05:17:02;98784.42;;;9.13;86.50
31911;BME280;18457;52.432;16.914;2023-01-15T05:19:30;98782.47;;;9.12;86.61
31911;BME280;18457;52.432;16.914;2023-01-15T05:21:59;98780.41;;;9.10;87.39
31911;BME280;18457;52.432;16.914;2023-01-15T05:24:28;98786.39;;;9.09;88.43
31911;BME280;18457;52.432;16.914;2023-01-15T05:26:56;98784.53;;;9.06;89.61
31911;BME280;18457;52.432;16.914;2023-01-15T05:29:25;98790.05;;;9.04;90.86
31911;BME280;18457;52.432;16.914;2023-01-15T05:31:53;98796.14;;;9.01;91.92
31911;BME280;18457;52.432;16.914;2023-01-15T05:34:21;98786.59;;;8.97;92.82
31911;BME280;18457;52.432;16.914;2023-01-15T05:36:50;98789.46;;;8.93;93.76
31911;BME280;18457;52.432;16.914;2023-01-15T05:39:19;98788.65;;;8.91;94.68
31911;BME280;18457;52.432;16.914;2023-01-15T05:41:47;98789.07;;;8.90;95.26
31911;BME280;18457;52.432;16.914;2023-01-15T05:44:22;98790.73;;;8.89;95.78
31911;BME280;18457;52.432;16.914;2023-01-15T05:46:53;98791.07;;;8.85;96.38
31911;BME280;18457;52.432;16.914;2023-01-15T05:49:24;98788.27;;;8.83;96.63
31911;BME280;18457;52.432;16.914;2023-01-15T05:51:53;98786.14;;;8.82;97.23
31911;BME280;18457;52.432;16.914;2023-01-15T05:54:23;98784.73;;;8.81;97.38
31911;BME280;18457;52.432;16.914;2023-01-15T05:56:52;98781.38;;;8.80;97.69
31911;BME280;18457;52.432;16.914;2023-01-15T05:59:23;98779.48;;;8.82;97.76
31911;BME280;18457;52.432;16.914;2023-01-15T06:01:52;98772.42;;;8.79;98.03
31911;BME280;18457;52.432;16.914;2023-01-15T06:04:21;98769.36;;;8.79;98.26
31911;BME280;18457;52.432;16.914;2023-01-15T06:06:55;98769.85;;;8.76;98.82
31911;BME280;18457;52.432;16.914;2023-01-15T06:09:24;98767.14;;;8.76;98.93
31911;BME280;18457;52.432;16.914;2023-01-15T06:11:54;98760.61;;;8.73;99.18
31911;BME280;18457;52.432;16.914;2023-01-15T06:14:24;98764.06;;;8.68;99.75
31911;BME280;18457;52.432;16.914;2023-01-15T06:16:52;98754.52;;;8.68;99.95
31911;BME280;18457;52.432;16.914;2023-01-15T06:19:21;98757.41;;;8.68;100.00
31911;BME280;18457;52.432;16.914;2023-01-15T06:21:49;98750.48;;;8.66;100.00
31911;BME280;18457;52.432;16.914;2023-01-15T06:24:18;98755.90;;;8.70;100.00
31911;BME280;18457;52.432;16.914;2023-01-15T06:26:47;98757.23;;;8.67;100.00
31911;BME280;18457;52.432;16.914;2023-01-15T06:29:15;98751.66;;;8.68;100.00
31911;BME280;18457;52.432;16.914;2023-01-15T06:31:46;98755.55;;;8.69;100.00
31911;BME280;18457;52.432;16.914;2023-01-15T06:34:15;98748.14;;;8.70;100.00
31911;BME280;18457;52.432;16.914;2023-01-15T06:36:43;98751.91;;;8.70;100.00
31911;BME280;18457;52.432;16.914;2023-01-15T06:39:12;98756.59;;;8.74;100.00
31911;BME280;18457;52.432;16.914;2023-01-15T06:41:41;98757.56;;;8.77;100.00
31911;BME280;18457;52.432;16.914;2023-01-15T06:44:27;98753.73;;;8.78;100.00
31911;BME280;18457;52.432;16.914;2023-01-15T06:47:15;98757.05;;;8.76;100.00
31911;BME280;18457;52.432;16.914;2023-01-15T06:49:47;98756.48;;;8.76;100.00
31911;BME280;18457;52.432;16.914;2023-01-15T06:52:16;98754.91;;;8.76;100.00
31911;BME280;18457;52.432;16.914;2023-01-15T06:54:45;98751.59;;;8.77;100.00
31911;BME280;18457;52.432;16.914;2023-01-15T06:57:13;98749.51;;;8.80;100.00
31911;BME280;18457;52.432;16.914;2023-01-15T06:59:42;98746.73;;;8.82;100.00
31911;BME280;18457;52.432;16.914;2023-01-15T07:02:10;98740.28;;;8.81;100.00
31911;BME280;18457;52.432;16.914;2023-01-15T07:04:39;98745.09;;;8.82;100.00
31911;BME280;18457;52.432;16.914;2023-01-15T07:07:07;98742.14;;;8.84;100.00
31911;BME280;18457;52.432;16.914;2023-01-15T07:09:36;98744.30;;;8.84;100.00
31911;BME280;18457;52.432;16.914;2023-01-15T07:12:05;98744.30;;;8.84;100.00
31911;BME280;18457;52.432;16.914;2023-01-15T07:14:34;98753.94;;;8.85;100.00
31911;BME280;18457;52.432;16.914;2023-01-15T07:17:03;98752.74;;;8.88;100.00
31911;BME280;18457;52.432;16.914;2023-01-15T07:19:32;98756.04;;;8.87;100.00
31911;BME280;18457;52.432;16.914;2023-01-15T07:22:01;98750.62;;;8.87;100.00
31911;BME280;18457;52.432;16.914;2023-01-15T07:24:30;98749.16;;;8.88;100.00
31911;BME280;18457;52.432;16.914;2023-01-15T07:26:59;98743.48;;;8.90;100.00
31911;BME280;18457;52.432;16.914;2023-01-15T07:29:27;98740.31;;;8.92;100.00
31911;BME280;18457;52.432;16.914;2023-01-15T07:31:58;98737.92;;;8.94;100.00
31911;BME280;18457;52.432;16.914;2023-01-15T07:34:27;98743.14;;;8.98;100.00
31911;BME280;18457;52.432;16.914;2023-01-15T07:36:56;98745.09;;;8.99;100.00
31911;BME280;18457;52.432;16.914;2023-01-15T07:39:24;98745.20;;;9.00;100.00
31911;BME280;18457;52.432;16.914;2023-01-15T07:41:52;98739.20;;;9.01;100.00
31911;BME280;18457;52.432;16.914;2023-01-15T07:44:39;98742.90;;;9.03;100.00
31911;BME280;18457;52.432;16.914;2023-01-15T07:47:27;98737.60;;;9.05;100.00
31911;BME280;18457;52.432;16.914;2023-01-15T07:50:16;98738.42;;;9.06;100.00
31911;BME280;18457;52.432;16.914;2023-01-15T07:52:45;98740.84;;;9.05;100.00
31911;BME280;18457;52.432;16.914;2023-01-15T07:55:13;98736.06;;;9.07;100.00
31911;BME280;18457;52.432;16.914;2023-01-15T07:57:42;98735.45;;;9.08;100.00
31911;BME280;18457;52.432;16.914;2023-01-15T08:00:14;98741.30;;;9.11;100.00
31911;BME280;18457;52.432;16.914;2023-01-15T08:02:46;98738.66;;;9.13;100.00
31911;BME280;18457;52.432;16.914;2023-01-15T08:05:17;98738.98;;;9.13;100.00
31911;BME280;18457;52.432;16.914;2023-01-15T08:07:46;98739.30;;;9.15;100.00
31911;BME280;18457;52.432;16.914;2023-01-15T08:10:16;98739.84;;;9.15;100.00
31911;BME280;18457;52.432;16.914;2023-01-15T08:12:44;98739.68;;;9.18;100.00
31911;BME280;18457;52.432;16.914;2023-01-15T08:15:38;98734.42;;;9.19;100.00
31911;BME280;18457;52.432;16.914;2023-01-15T08:18:07;98736.70;;;9.20;100.00
31911;BME280;18457;52.432;16.914;2023-01-15T08:20:35;98731.84;;;9.20;100.00
31911;BME280;18457;52.432;16.914;2023-01-15T08:23:03;98730.45;;;9.24;100.00
31911;BME280;18457;52.432;16.914;2023-01-15T08:25:32;98726.52;;;9.26;100.00
31911;BME280;18457;52.432;16.914;2023-01-15T08:28:01;98723.73;;;9.28;100.00
31911;BME280;18457;52.432;16.914;2023-01-15T08:30:30;98727.58;;;9.31;100.00
31911;BME280;18457;52.432;16.914;2023-01-15T08:33:01;98731.46;;;9.28;100.00
31911;BME280;18457;52.432;16.914;2023-01-15T08:35:30;98729.98;;;9.29;100.00
31911;BME280;18457;52.432;16.914;2023-01-15T08:37:58;98730.48;;;9.30;100.00
31911;BME280;18457;52.432;16.914;2023-01-15T08:40:30;98725.84;;;9.33;100.00
31911;BME280;18457;52.432;16.914;2023-01-15T08:42:58;98724.97;;;9.32;100.00
31911;BME280;18457;52.432;16.914;2023-01-15T08:45:27;98722.81;;;9.37;100.00
31911;BME280;18457;52.432;16.914;2023-01-15T08:47:55;98716.30;;;9.41;100.00
31911;BME280;18457;52.432;16.914;2023-01-15T08:50:24;98716.63;;;9.38;100.00
31911;BME280;18457;52.432;16.914;2023-01-15T08:52:53;98720.09;;;9.41;100.00
31911;BME280;18457;52.432;16.914;2023-01-15T08:55:21;98717.90;;;9.41;100.00
31911;BME280;18457;52.432;16.914;2023-01-15T08:57:50;98724.98;;;9.40;100.00
31911;BME280;18457;52.432;16.914;2023-01-15T09:00:19;98723.17;;;9.40;100.00
31911;BME280;18457;52.432;16.914;2023-01-15T09:02:48;98729.70;;;9.43;100.00
31911;BME280;18457;52.432;16.914;2023-01-15T09:05:18;98726.17;;;9.45;100.00
31911;BME280;18457;52.432;16.914;2023-01-15T09:07:46;98737.42;;;9.43;100.00
31911;BME280;18457;52.432;16.914;2023-01-15T09:10:15;98734.06;;;9.46;100.00
31911;BME280;18457;52.432;16.914;2023-01-15T09:12:45;98745.41;;;9.46;100.00
31911;BME280;18457;52.432;16.914;2023-01-15T09:15:14;98747.39;;;9.46;100.00
31911;BME280;18457;52.432;16.914;2023-01-15T09:17:42;98747.17;;;9.47;100.00
31911;BME280;18457;52.432;16.914;2023-01-15T09:20:13;98762.17;;;9.46;100.00
31911;BME280;18457;52.432;16.914;2023-01-15T09:22:41;98764.32;;;9.42;100.00
31911;BME280;18457;52.432;16.914;2023-01-15T09:25:10;98766.84;;;9.43;100.00
31911;BME280;18457;52.432;16.914;2023-01-15T09:27:38;98759.13;;;9.42;100.00
31911;BME280;18457;52.432;16.914;2023-01-15T09:30:09;98776.48;;;9.45;100.00
31911;BME280;18457;52.432;16.914;2023-01-15T09:32:41;98795.15;;;9.42;100.00
31911;BME280;18457;52.432;16.914;2023-01-15T09:35:10;98804.52;;;9.31;100.00
31911;BME280;18457;52.432;16.914;2023-01-15T09:37:38;98809.78;;;9.22;100.00
31911;BME280;18457;52.432;16.914;2023-01-15T09:40:22;98814.85;;;9.13;100.00
31911;BME280;18457;52.432;16.914;2023-01-15T09:43:01;98833.73;;;9.05;100.00
31911;BME280;18457;52.432;16.914;2023-01-15T09:45:39;98845.91;;;8.69;100.00
31911;BME280;18457;52.432;16.914;2023-01-15T09:48:21;98844.89;;;8.24;100.00
31911;BME280;18457;52.432;16.914;2023-01-15T09:51:02;98861.40;;;7.92;100.00
31911;BME280;18457;52.432;16.914;2023-01-15T09:53:55;98869.49;;;7.68;100.00
31911;BME280;18457;52.432;16.914;2023-01-15T09:56:29;98880.31;;;7.53;100.00
31911;BME280;18457;52.432;16.914;2023-01-15T09:59:05;98878.46;;;7.40;100.00
31911;BME280;18457;52.432;16.914;2023-01-15T10:01:42;98884.86;;;7.47;100.00
31911;BME280;18457;52.432;16.914;2023-01-15T10:04:16;98888.73;;;7.44;100.00
31911;BME280;18457;52.432;16.914;2023-01-15T10:06:55;98893.34;;;7.35;100.00
31911;BME280;18457;52.432;16.914;2023-01-15T10:09:29;98892.88;;;7.38;100.00
31911;BME280;18457;52.432;16.914;2023-01-15T10:12:08;98895.59;;;7.33;100.00
31911;BME280;18457;52.432;16.914;2023-01-15T10:15:05;98894.64;;;7.39;100.00
31911;BME280;18457;52.432;16.914;2023-01-15T10:17:40;98886.50;;;7.31;100.00
31911;BME280;18457;52.432;16.914;2023-01-15T10:20:14;98896.98;;;7.39;100.00
31911;BME280;18457;52.432;16.914;2023-01-15T10:23:02;98897.13;;;7.35;100.00
31911;BME280;18457;52.432;16.914;2023-01-15T10:25:41;98896.55;;;7.31;100.00
31911;BME280;18457;52.432;16.914;2023-01-15T10:28:19;98896.67;;;7.28;100.00
31911;BME280;18457;52.432;16.914;2023-01-15T10:30:53;98889.52;;;7.27;100.00
31911;BME280;18457;52.432;16.914;2023-01-15T10:33:43;98879.56;;;7.29;100.00
31911;BME280;18457;52.432;16.914;2023-01-15T10:36:18;98880.09;;;7.44;100.00
31911;BME280;18457;52.432;16.914;2023-01-15T10:38:53;98879.91;;;7.34;100.00
31911;BME280;18457;52.432;16.914;2023-01-15T10:41:44;98882.43;;;7.29;100.00
31911;BME280;18457;52.432;16.914;2023-01-15T10:44:20;98886.77;;;7.33;100.00
31911;BME280;18457;52.432;16.914;2023-01-15T10:46:54;98892.98;;;7.35;100.00
31911;BME280;18457;52.432;16.914;2023-01-15T10:49:28;98899.86;;;7.29;100.00
31911;BME280;18457;52.432;16.914;2023-01-15T10:51:58;98898.43;;;7.34;100.00
31911;BME280;18457;52.432;16.914;2023-01-15T10:54:34;98896.13;;;7.23;100.00
31911;BME280;18457;52.432;16.914;2023-01-15T10:57:10;98905.58;;;7.15;100.00
31911;BME280;18457;52.432;16.914;2023-01-15T10:59:43;98912.98;;;7.08;100.00
31911;BME280;18457;52.432;16.914;2023-01-15T11:02:22;98906.32;;;6.98;100.00
31911;BME280;18457;52.432;16.914;2023-01-15T11:04:52;98898.48;;;7.07;100.00
31911;BME280;18457;52.432;16.914;2023-01-15T11:07:23;98898.27;;;7.08;100.00
31911;BME280;18457;52.432;16.914;2023-01-15T11:09:53;98902.98;;;7.07;100.00
31911;BME280;18457;52.432;16.914;2023-01-15T11:12:25;98905.36;;;7.16;99.45
31911;BME280;18457;52.432;16.914;2023-01-15T11:15:17;98906.34;;;7.08;97.19
31911;BME280;18457;52.432;16.914;2023-01-15T11:18:13;98913.16;;;7.03;96.43
31911;BME280;18457;52.432;16.914;2023-01-15T11:21:02;98903.38;;;7.05;96.30
31911;BME280;18457;52.432;16.914;2023-01-15T11:23:34;98909.32;;;7.05;96.73
31911;BME280;18457;52.432;16.914;2023-01-15T11:26:02;98915.67;;;7.08;95.59
31911;BME280;18457;52.432;16.914;2023-01-15T11:28:33;98914.40;;;6.97;94.88
31911;BME280;18457;52.432;16.914;2023-01-15T11:31:03;98915.51;;;6.92;95.92
31911;BME280;18457;52.432;16.914;2023-01-15T11:33:31;98929.80;;;6.88;96.70
31911;BME280;18457;52.432;16.914;2023-01-15T11:36:02;98935.08;;;6.86;96.94
31911;BME280;18457;52.432;16.914;2023-01-15T11:38:42;98930.73;;;6.87;97.18
31911;BME280;18457;52.432;16.914;2023-01-15T11:41:21;98934.19;;;6.80;97.49
31911;BME280;18457;52.432;16.914;2023-01-15T11:43:56;98940.04;;;6.77;98.15
31911;BME280;18457;52.432;16.914;2023-01-15T11:46:46;98951.17;;;6.77;98.50
31911;BME280;18457;52.432;16.914;2023-01-15T11:49:33;98944.63;;;6.80;98.89
31911;BME280;18457;52.432;16.914;2023-01-15T11:52:22;98935.83;;;6.90;98.82
31911;BME280;18457;52.432;16.914;2023-01-15T11:54:53;98918.52;;;7.03;98.08
31911;BME280;18457;52.432;16.914;2023-01-15T11:57:29;98927.10;;;7.10;97.53
31911;BME280;18457;52.432;16.914;2023-01-15T11:59:59;98938.88;;;7.12;96.90
31911;BME280;18457;52.432;16.914;2023-01-15T12:02:31;98946.39;;;7.13;96.12
31911;BME280;18457;52.432;16.914;2023-01-15T12:05:05;98952.17;;;7.22;96.21
31911;BME280;18457;52.432;16.914;2023-01-15T12:07:38;98955.23;;;7.27;96.18
31911;BME280;18457;52.432;16.914;2023-01-15T12:10:16;98960.30;;;7.26;95.98
31911;BME280;18457;52.432;16.914;2023-01-15T12:13:16;98962.64;;;7.26;95.31
31911;BME280;18457;52.432;16.914;2023-01-15T12:15:54;98954.51;;;7.22;94.67
31911;BME280;18457;52.432;16.914;2023-01-15T12:18:51;98962.03;;;7.28;94.68
31911;BME280;18457;52.432;16.914;2023-01-15T12:21:37;98965.34;;;7.31;94.89
31911;BME280;18457;52.432;16.914;2023-01-15T12:24:33;98975.48;;;7.29;94.82
31911;BME280;18457;52.432;16.914;2023-01-15T12:27:16;98976.19;;;7.29;94.97
31911;BME280;18457;52.432;16.914;2023-01-15T12:29:52;98969.13;;;7.31;94.38
31911;BME280;18457;52.432;16.914;2023-01-15T12:32:25;98962.80;;;7.16;94.33
31911;BME280;18457;52.432;16.914;2023-01-15T12:35:02;98980.30;;;7.19;93.85
31911;BME280;18457;52.432;16.914;2023-01-15T12:37:35;98978.45;;;7.15;94.32
31911;BME280;18457;52.432;16.914;2023-01-15T12:40:18;98976.47;;;7.10;94.12
31911;BME280;18457;52.432;16.914;2023-01-15T12:42:52;98971.94;;;7.06;93.84
31911;BME280;18457;52.432;16.914;2023-01-15T12:45:42;98983.44;;;6.95;94.73
31911;BME280;18457;52.432;16.914;2023-01-15T12:48:18;98988.30;;;6.99;93.99
31911;BME280;18457;52.432;16.914;2023-01-15T12:50:48;98986.51;;;7.00;92.95
31911;BME280;18457;52.432;16.914;2023-01-15T12:53:23;98978.13;;;7.09;93.00
31911;BME280;18457;52.432;16.914;2023-01-15T12:55:57;98962.41;;;7.17;92.82
31911;BME280;18457;52.432;16.914;2023-01-15T12:58:37;98964.20;;;7.22;91.81
31911;BME280;18457;52.432;16.914;2023-01-15T13:01:14;98966.91;;;7.27;91.33
31911;BME280;18457;52.432;16.914;2023-01-15T13:03:52;98966.20;;;7.27;90.86
31911;BME280;18457;52.432;16.914;2023-01-15T13:06:25;98971.52;;;7.29;91.12
31911;BME280;18457;52.432;16.914;2023-01-15T13:08:59;98976.80;;;7.27;91.20
31911;BME280;18457;52.432;16.914;2023-01-15T13:11:29;98973.85;;;7.29;90.80
31911;BME280;18457;52.432;16.914;2023-01-15T13:13:58;98971.27;;;7.26;90.76
31911;BME280;18457;52.432;16.914;2023-01-15T13:16:35;98963.71;;;7.26;90.06
31911;BME280;18457;52.432;16.914;2023-01-15T13:19:20;98966.90;;;7.27;90.39
31911;BME280;18457;52.432;16.914;2023-01-15T13:21:55;98965.89;;;7.20;89.94
31911;BME280;18457;52.432;16.914;2023-01-15T13:24:33;98972.21;;;7.19;90.27
31911;BME280;18457;52.432;16.914;2023-01-15T13:27:21;98972.95;;;7.24;90.48
31911;BME280;18457;52.432;16.914;2023-01-15T13:30:04;98970.64;;;7.23;90.19